LAX weather

Los Angeles International Airport
Los Angeles, California, United States

Public forecast

Using degrees Fahrenheit for public forecast. Weather courtesy of forecast.io.

METAR (pilot weather report)

Retrieved 2018/12/13 03:53 UTC (31 minutes ago):

KLAX 130353Z VRB03KT 9SM CLR 16/12 A3018 RMK AO2 SLP221 T01560122

TAF (pilot weather forecast)

Forecast is more than 12 hours old.

Retrieved 2018/12/12 00:40 UTC (1 day ago):

TAF KLAX 122338Z 1300/1406 13006KT P6SM SKC FM130200 VRB03KT P6SM SKC FM131200 05005KT P6SM SKC FM132200 26007KT P6SM SKC FM140300 VRB03KT P6SM SKC